sensor_id;sensor_type;location;lat;lon;timestamp;P1;durP1;ratioP1;P2;durP2;ratioP2
61905;SDS011;47863;55.766;37.672;2022-10-17T00:01:35;7.00;;;2.78;;
61905;SDS011;47863;55.766;37.672;2022-10-17T00:04:01;3.95;;;2.33;;
61905;SDS011;47863;55.766;37.672;2022-10-17T00:06:26;8.55;;;3.58;;
61905;SDS011;47863;55.766;37.672;2022-10-17T00:08:52;4.80;;;2.75;;
61905;SDS011;47863;55.766;37.672;2022-10-17T00:11:19;6.55;;;3.13;;
61905;SDS011;47863;55.766;37.672;2022-10-17T00:13:47;7.55;;;3.50;;
61905;SDS011;47863;55.766;37.672;2022-10-17T00:16:14;4.80;;;3.15;;
61905;SDS011;47863;55.766;37.672;2022-10-17T00:18:46;4.30;;;2.78;;
61905;SDS011;47863;55.766;37.672;2022-10-17T00:21:18;5.70;;;3.35;;
61905;SDS011;47863;55.766;37.672;2022-10-17T00:23:45;4.50;;;3.17;;
61905;SDS011;47863;55.766;37.672;2022-10-17T00:26:11;9.88;;;3.13;;
61905;SDS011;47863;55.766;37.672;2022-10-17T00:28:37;11.52;;;3.00;;
61905;SDS011;47863;55.766;37.672;2022-10-17T00:31:03;7.57;;;3.40;;
61905;SDS011;47863;55.766;37.672;2022-10-17T00:33:31;3.63;;;2.40;;
61905;SDS011;47863;55.766;37.672;2022-10-17T00:36:01;8.82;;;3.35;;
61905;SDS011;47863;55.766;37.672;2022-10-17T00:38:36;5.43;;;3.33;;
61905;SDS011;47863;55.766;37.672;2022-10-17T00:41:02;7.85;;;3.30;;
61905;SDS011;47863;55.766;37.672;2022-10-17T00:43:28;6.88;;;3.28;;
61905;SDS011;47863;55.766;37.672;2022-10-17T00:45:55;6.43;;;3.33;;
61905;SDS011;47863;55.766;37.672;2022-10-17T00:48:21;5.82;;;3.33;;
61905;SDS011;47863;55.766;37.672;2022-10-17T00:50:49;7.20;;;3.35;;
61905;SDS011;47863;55.766;37.672;2022-10-17T00:53:15;10.13;;;3.38;;
61905;SDS011;47863;55.766;37.672;2022-10-17T00:55:51;4.43;;;2.38;;
61905;SDS011;47863;55.766;37.672;2022-10-17T00:58:18;5.40;;;3.10;;
61905;SDS011;47863;55.766;37.672;2022-10-17T01:00:45;9.27;;;3.20;;
61905;SDS011;47863;55.766;37.672;2022-10-17T01:03:12;7.75;;;3.17;;
61905;SDS011;47863;55.766;37.672;2022-10-17T01:05:39;4.72;;;2.50;;
61905;SDS011;47863;55.766;37.672;2022-10-17T01:08:05;6.40;;;2.72;;
61905;SDS011;47863;55.766;37.672;2022-10-17T01:10:34;5.15;;;3.08;;
61905;SDS011;47863;55.766;37.672;2022-10-17T01:32:13;5.95;;;3.20;;
61905;SDS011;47863;55.766;37.672;2022-10-17T01:40:35;8.80;;;3.50;;
61905;SDS011;47863;55.766;37.672;2022-10-17T01:43:39;10.07;;;3.63;;
61905;SDS011;47863;55.766;37.672;2022-10-17T01:46:17;5.43;;;2.33;;
61905;SDS011;47863;55.766;37.672;2022-10-17T01:49:00;5.53;;;3.55;;
61905;SDS011;47863;55.766;37.672;2022-10-17T01:51:39;4.88;;;2.85;;
61905;SDS011;47863;55.766;37.672;2022-10-17T01:54:53;10.18;;;3.58;;
61905;SDS011;47863;55.766;37.672;2022-10-17T01:57:28;6.43;;;3.60;;
61905;SDS011;47863;55.766;37.672;2022-10-17T01:59:59;9.73;;;3.70;;
61905;SDS011;47863;55.766;37.672;2022-10-17T02:02:29;4.40;;;2.65;;
61905;SDS011;47863;55.766;37.672;2022-10-17T02:04:56;8.90;;;3.85;;
61905;SDS011;47863;55.766;37.672;2022-10-17T02:07:22;9.07;;;3.60;;
61905;SDS011;47863;55.766;37.672;2022-10-17T02:09:47;7.00;;;3.55;;
61905;SDS011;47863;55.766;37.672;2022-10-17T02:12:26;6.20;;;2.90;;
61905;SDS011;47863;55.766;37.672;2022-10-17T02:15:34;10.68;;;3.90;;
61905;SDS011;47863;55.766;37.672;2022-10-17T02:21:08;9.20;;;4.05;;
61905;SDS011;47863;55.766;37.672;2022-10-17T02:26:42;5.30;;;3.45;;
61905;SDS011;47863;55.766;37.672;2022-10-17T02:29:20;8.02;;;4.05;;
61905;SDS011;47863;55.766;37.672;2022-10-17T02:37:09;4.15;;;2.42;;
61905;SDS011;47863;55.766;37.672;2022-10-17T02:39:36;7.85;;;3.10;;
61905;SDS011;47863;55.766;37.672;2022-10-17T02:42:06;8.00;;;3.10;;
61905;SDS011;47863;55.766;37.672;2022-10-17T02:44:35;5.30;;;3.38;;
61905;SDS011;47863;55.766;37.672;2022-10-17T02:47:16;8.00;;;3.55;;
61905;SDS011;47863;55.766;37.672;2022-10-17T02:49:48;8.80;;;3.65;;
61905;SDS011;47863;55.766;37.672;2022-10-17T02:52:16;9.50;;;3.65;;
61905;SDS011;47863;55.766;37.672;2022-10-17T02:57:46;7.05;;;3.70;;
61905;SDS011;47863;55.766;37.672;2022-10-17T03:00:14;11.80;;;3.60;;
61905;SDS011;47863;55.766;37.672;2022-10-17T03:02:43;6.30;;;3.33;;
61905;SDS011;47863;55.766;37.672;2022-10-17T03:05:13;6.82;;;3.10;;
61905;SDS011;47863;55.766;37.672;2022-10-17T03:07:41;9.52;;;3.70;;
61905;SDS011;47863;55.766;37.672;2022-10-17T03:10:07;4.30;;;3.28;;
61905;SDS011;47863;55.766;37.672;2022-10-17T03:12:32;5.43;;;2.65;;
61905;SDS011;47863;55.766;37.672;2022-10-17T03:14:58;7.85;;;3.33;;
61905;SDS011;47863;55.766;37.672;2022-10-17T03:17:23;7.85;;;2.97;;
61905;SDS011;47863;55.766;37.672;2022-10-17T03:19:49;8.95;;;4.25;;
61905;SDS011;47863;55.766;37.672;2022-10-17T03:22:14;10.23;;;3.35;;
61905;SDS011;47863;55.766;37.672;2022-10-17T03:24:40;11.77;;;4.10;;
61905;SDS011;47863;55.766;37.672;2022-10-17T03:27:05;6.35;;;2.03;;
61905;SDS011;47863;55.766;37.672;2022-10-17T03:29:31;9.38;;;4.00;;
61905;SDS011;47863;55.766;37.672;2022-10-17T03:31:56;5.03;;;2.50;;
61905;SDS011;47863;55.766;37.672;2022-10-17T03:34:22;5.75;;;2.47;;
61905;SDS011;47863;55.766;37.672;2022-10-17T03:36:47;6.65;;;2.55;;
61905;SDS011;47863;55.766;37.672;2022-10-17T03:39:13;7.82;;;3.60;;
61905;SDS011;47863;55.766;37.672;2022-10-17T03:41:38;7.15;;;3.08;;
61905;SDS011;47863;55.766;37.672;2022-10-17T03:44:04;5.07;;;2.80;;
61905;SDS011;47863;55.766;37.672;2022-10-17T03:46:30;5.32;;;3.17;;
61905;SDS011;47863;55.766;37.672;2022-10-17T03:48:55;5.80;;;3.55;;
61905;SDS011;47863;55.766;37.672;2022-10-17T03:51:21;6.57;;;3.60;;
61905;SDS011;47863;55.766;37.672;2022-10-17T03:53:46;9.80;;;3.30;;
61905;SDS011;47863;55.766;37.672;2022-10-17T03:56:13;6.93;;;3.35;;
61905;SDS011;47863;55.766;37.672;2022-10-17T03:58:43;8.30;;;3.50;;
61905;SDS011;47863;55.766;37.672;2022-10-17T04:01:11;7.47;;;3.30;;
61905;SDS011;47863;55.766;37.672;2022-10-17T04:03:39;9.77;;;4.15;;
61905;SDS011;47863;55.766;37.672;2022-10-17T04:06:05;8.38;;;3.30;;
61905;SDS011;47863;55.766;37.672;2022-10-17T04:08:31;7.00;;;3.80;;
61905;SDS011;47863;55.766;37.672;2022-10-17T04:10:58;7.05;;;2.85;;
61905;SDS011;47863;55.766;37.672;2022-10-17T04:13:24;8.35;;;3.47;;
61905;SDS011;47863;55.766;37.672;2022-10-17T04:15:54;5.20;;;3.33;;
61905;SDS011;47863;55.766;37.672;2022-10-17T04:18:24;9.25;;;3.05;;
61905;SDS011;47863;55.766;37.672;2022-10-17T04:20:50;8.98;;;3.33;;
61905;SDS011;47863;55.766;37.672;2022-10-17T04:23:16;7.35;;;3.70;;
61905;SDS011;47863;55.766;37.672;2022-10-17T04:25:41;7.72;;;3.90;;
61905;SDS011;47863;55.766;37.672;2022-10-17T04:28:07;7.45;;;3.28;;
61905;SDS011;47863;55.766;37.672;2022-10-17T04:30:32;12.18;;;3.90;;
61905;SDS011;47863;55.766;37.672;2022-10-17T04:32:58;6.65;;;3.40;;
61905;SDS011;47863;55.766;37.672;2022-10-17T04:35:23;7.18;;;3.53;;
61905;SDS011;47863;55.766;37.672;2022-10-17T04:37:49;3.80;;;2.40;;
61905;SDS011;47863;55.766;37.672;2022-10-17T04:40:14;8.35;;;3.88;;
61905;SDS011;47863;55.766;37.672;2022-10-17T04:42:40;11.32;;;3.83;;
61905;SDS011;47863;55.766;37.672;2022-10-17T04:45:06;4.35;;;2.72;;
61905;SDS011;47863;55.766;37.672;2022-10-17T04:47:32;8.80;;;3.90;;
61905;SDS011;47863;55.766;37.672;2022-10-17T04:49:57;9.32;;;3.72;;
61905;SDS011;47863;55.766;37.672;2022-10-17T04:52:23;11.10;;;4.50;;
61905;SDS011;47863;55.766;37.672;2022-10-17T04:54:49;8.27;;;3.65;;
61905;SDS011;47863;55.766;37.672;2022-10-17T04:57:16;6.97;;;3.55;;
61905;SDS011;47863;55.766;37.672;2022-10-17T04:59:41;7.90;;;3.47;;
61905;SDS011;47863;55.766;37.672;2022-10-17T05:02:07;5.80;;;2.53;;
61905;SDS011;47863;55.766;37.672;2022-10-17T05:04:32;10.88;;;3.80;;
61905;SDS011;47863;55.766;37.672;2022-10-17T05:06:58;6.95;;;3.05;;
61905;SDS011;47863;55.766;37.672;2022-10-17T05:09:23;3.72;;;2.58;;
61905;SDS011;47863;55.766;37.672;2022-10-17T05:11:49;8.57;;;3.88;;
61905;SDS011;47863;55.766;37.672;2022-10-17T05:14:14;6.25;;;3.88;;
61905;SDS011;47863;55.766;37.672;2022-10-17T05:16:40;8.48;;;3.50;;
61905;SDS011;47863;55.766;37.672;2022-10-17T05:19:06;5.47;;;2.30;;
61905;SDS011;47863;55.766;37.672;2022-10-17T05:21:31;5.65;;;3.78;;
61905;SDS011;47863;55.766;37.672;2022-10-17T05:23:57;7.55;;;3.67;;
61905;SDS011;47863;55.766;37.672;2022-10-17T05:26:23;5.53;;;3.13;;
61905;SDS011;47863;55.766;37.672;2022-10-17T05:28:50;9.60;;;3.88;;
61905;SDS011;47863;55.766;37.672;2022-10-17T05:31:16;7.57;;;3.83;;
61905;SDS011;47863;55.766;37.672;2022-10-17T05:33:42;6.30;;;3.50;;
61905;SDS011;47863;55.766;37.672;2022-10-17T05:36:08;10.43;;;4.18;;
61905;SDS011;47863;55.766;37.672;2022-10-17T05:38:34;6.90;;;3.50;;
61905;SDS011;47863;55.766;37.672;2022-10-17T05:41:00;9.43;;;4.18;;
61905;SDS011;47863;55.766;37.672;2022-10-17T05:43:27;7.72;;;3.53;;
61905;SDS011;47863;55.766;37.672;2022-10-17T05:45:53;7.68;;;3.42;;
61905;SDS011;47863;55.766;37.672;2022-10-17T05:48:20;13.48;;;4.30;;
61905;SDS011;47863;55.766;37.672;2022-10-17T05:50:47;17.23;;;3.83;;
61905;SDS011;47863;55.766;37.672;2022-10-17T05:53:13;12.10;;;4.43;;
61905;SDS011;47863;55.766;37.672;2022-10-17T05:55:38;6.88;;;3.22;;
61905;SDS011;47863;55.766;37.672;2022-10-17T05:58:04;12.82;;;4.93;;
61905;SDS011;47863;55.766;37.672;2022-10-17T06:00:30;11.55;;;4.75;;
61905;SDS011;47863;55.766;37.672;2022-10-17T06:02:55;10.25;;;4.40;;
61905;SDS011;47863;55.766;37.672;2022-10-17T06:05:21;9.32;;;3.85;;
61905;SDS011;47863;55.766;37.672;2022-10-17T06:07:46;6.25;;;3.08;;
61905;SDS011;47863;55.766;37.672;2022-10-17T06:10:14;8.20;;;4.35;;
61905;SDS011;47863;55.766;37.672;2022-10-17T06:12:40;4.70;;;2.95;;
61905;SDS011;47863;55.766;37.672;2022-10-17T06:15:07;11.07;;;4.00;;
61905;SDS011;47863;55.766;37.672;2022-10-17T06:17:33;11.93;;;4.03;;
61905;SDS011;47863;55.766;37.672;2022-10-17T06:19:58;11.25;;;3.67;;
61905;SDS011;47863;55.766;37.672;2022-10-17T06:22:24;5.80;;;3.50;;
61905;SDS011;47863;55.766;37.672;2022-10-17T06:24:49;9.02;;;3.97;;
61905;SDS011;47863;55.766;37.672;2022-10-17T06:27:16;11.45;;;4.50;;
61905;SDS011;47863;55.766;37.672;2022-10-17T06:29:42;11.07;;;5.63;;
61905;SDS011;47863;55.766;37.672;2022-10-17T06:32:07;7.90;;;3.08;;
61905;SDS011;47863;55.766;37.672;2022-10-17T06:34:33;9.52;;;4.32;;
61905;SDS011;47863;55.766;37.672;2022-10-17T06:36:58;3.05;;;2.00;;
61905;SDS011;47863;55.766;37.672;2022-10-17T06:39:24;14.18;;;4.38;;
61905;SDS011;47863;55.766;37.672;2022-10-17T06:41:51;14.25;;;4.13;;
61905;SDS011;47863;55.766;37.672;2022-10-17T06:44:16;7.70;;;3.83;;
61905;SDS011;47863;55.766;37.672;2022-10-17T06:46:42;9.85;;;4.55;;
61905;SDS011;47863;55.766;37.672;2022-10-17T06:49:08;6.45;;;3.28;;
61905;SDS011;47863;55.766;37.672;2022-10-17T06:51:34;7.10;;;2.97;;
61905;SDS011;47863;55.766;37.672;2022-10-17T06:54:01;7.00;;;3.35;;
61905;SDS011;47863;55.766;37.672;2022-10-17T06:56:26;11.02;;;3.45;;
61905;SDS011;47863;55.766;37.672;2022-10-17T06:58:52;15.23;;;4.20;;
61905;SDS011;47863;55.766;37.672;2022-10-17T07:01:18;10.18;;;3.83;;
61905;SDS011;47863;55.766;37.672;2022-10-17T07:03:46;7.88;;;3.22;;
61905;SDS011;47863;55.766;37.672;2022-10-17T07:06:13;15.32;;;4.40;;
61905;SDS011;47863;55.766;37.672;2022-10-17T07:08:42;9.38;;;3.92;;
61905;SDS011;47863;55.766;37.672;2022-10-17T07:11:13;9.60;;;3.47;;
61905;SDS011;47863;55.766;37.672;2022-10-17T07:13:40;10.10;;;4.03;;
61905;SDS011;47863;55.766;37.672;2022-10-17T07:16:06;10.55;;;3.88;;
61905;SDS011;47863;55.766;37.672;2022-10-17T07:18:32;13.50;;;4.40;;
61905;SDS011;47863;55.766;37.672;2022-10-17T07:20:59;4.68;;;2.42;;
61905;SDS011;47863;55.766;37.672;2022-10-17T07:23:25;15.15;;;3.90;;
61905;SDS011;47863;55.766;37.672;2022-10-17T07:25:50;11.98;;;3.78;;
61905;SDS011;47863;55.766;37.672;2022-10-17T07:28:16;8.63;;;4.00;;
61905;SDS011;47863;55.766;37.672;2022-10-17T07:30:42;11.65;;;3.53;;
61905;SDS011;47863;55.766;37.672;2022-10-17T07:33:08;4.25;;;2.90;;
61905;SDS011;47863;55.766;37.672;2022-10-17T07:35:34;7.97;;;4.28;;
61905;SDS011;47863;55.766;37.672;2022-10-17T07:38:02;8.48;;;3.72;;
61905;SDS011;47863;55.766;37.672;2022-10-17T07:40:27;11.27;;;4.43;;
61905;SDS011;47863;55.766;37.672;2022-10-17T07:42:53;9.57;;;3.55;;
61905;SDS011;47863;55.766;37.672;2022-10-17T07:45:20;6.20;;;3.40;;
61905;SDS011;47863;55.766;37.672;2022-10-17T07:47:47;8.45;;;4.07;;
61905;SDS011;47863;55.766;37.672;2022-10-17T07:50:13;7.85;;;2.97;;
61905;SDS011;47863;55.766;37.672;2022-10-17T07:52:38;12.32;;;4.18;;
61905;SDS011;47863;55.766;37.672;2022-10-17T07:55:04;13.02;;;4.50;;
61905;SDS011;47863;55.766;37.672;2022-10-17T07:57:31;6.50;;;3.38;;
61905;SDS011;47863;55.766;37.672;2022-10-17T07:59:57;6.80;;;2.88;;
61905;SDS011;47863;55.766;37.672;2022-10-17T08:02:23;7.82;;;3.10;;
61905;SDS011;47863;55.766;37.672;2022-10-17T08:04:50;12.65;;;3.90;;
61905;SDS011;47863;55.766;37.672;2022-10-17T08:07:16;11.77;;;4.28;;
61905;SDS011;47863;55.766;37.672;2022-10-17T08:09:43;11.82;;;4.72;;
61905;SDS011;47863;55.766;37.672;2022-10-17T08:12:09;9.52;;;2.83;;
61905;SDS011;47863;55.766;37.672;2022-10-17T08:14:35;8.30;;;4.03;;
61905;SDS011;47863;55.766;37.672;2022-10-17T08:17:00;15.80;;;4.70;;
61905;SDS011;47863;55.766;37.672;2022-10-17T08:19:26;8.43;;;3.60;;
61905;SDS011;47863;55.766;37.672;2022-10-17T08:21:51;6.68;;;3.20;;
61905;SDS011;47863;55.766;37.672;2022-10-17T08:24:18;15.32;;;4.78;;
61905;SDS011;47863;55.766;37.672;2022-10-17T08:26:44;14.27;;;4.95;;
61905;SDS011;47863;55.766;37.672;2022-10-17T08:29:11;9.60;;;4.03;;
61905;SDS011;47863;55.766;37.672;2022-10-17T08:31:38;7.95;;;4.20;;
61905;SDS011;47863;55.766;37.672;2022-10-17T08:34:03;6.78;;;3.78;;
61905;SDS011;47863;55.766;37.672;2022-10-17T08:36:29;14.85;;;5.32;;
61905;SDS011;47863;55.766;37.672;2022-10-17T08:38:54;7.55;;;4.60;;
61905;SDS011;47863;55.766;37.672;2022-10-17T08:47:08;8.57;;;4.05;;
61905;SDS011;47863;55.766;37.672;2022-10-17T08:49:57;10.98;;;5.28;;
61905;SDS011;47863;55.766;37.672;2022-10-17T08:52:36;7.38;;;3.03;;
61905;SDS011;47863;55.766;37.672;2022-10-17T08:55:15;8.77;;;4.85;;
61905;SDS011;47863;55.766;37.672;2022-10-17T08:57:42;12.20;;;5.57;;
61905;SDS011;47863;55.766;37.672;2022-10-17T09:00:18;10.60;;;5.05;;
61905;SDS011;47863;55.766;37.672;2022-10-17T09:05:22;13.10;;;5.60;;
61905;SDS011;47863;55.766;37.672;2022-10-17T09:08:15;9.93;;;4.32;;
61905;SDS011;47863;55.766;37.672;2022-10-17T09:11:10;9.77;;;4.03;;
61905;SDS011;47863;55.766;37.672;2022-10-17T09:13:57;13.20;;;5.35;;
61905;SDS011;47863;55.766;37.672;2022-10-17T09:21:51;9.57;;;4.90;;
61905;SDS011;47863;55.766;37.672;2022-10-17T09:27:11;10.65;;;4.93;;
61905;SDS011;47863;55.766;37.672;2022-10-17T09:29:43;15.60;;;4.15;;
61905;SDS011;47863;55.766;37.672;2022-10-17T09:32:14;15.40;;;6.05;;
61905;SDS011;47863;55.766;37.672;2022-10-17T09:34:43;11.45;;;5.97;;
61905;SDS011;47863;55.766;37.672;2022-10-17T09:37:12;7.18;;;4.05;;
61905;SDS011;47863;55.766;37.672;2022-10-17T09:39:40;14.45;;;6.45;;
61905;SDS011;47863;55.766;37.672;2022-10-17T09:42:09;10.27;;;4.70;;
61905;SDS011;47863;55.766;37.672;2022-10-17T09:45:23;9.50;;;5.30;;
61905;SDS011;47863;55.766;37.672;2022-10-17T09:47:38;11.90;;;5.93;;
61905;SDS011;47863;55.766;37.672;2022-10-17T09:50:49;20.50;;;6.88;;
61905;SDS011;47863;55.766;37.672;2022-10-17T09:52:59;12.55;;;6.88;;
61905;SDS011;47863;55.766;37.672;2022-10-17T09:55:36;13.30;;;6.50;;
61905;SDS011;47863;55.766;37.672;2022-10-17T09:58:05;10.02;;;5.70;;
61905;SDS011;47863;55.766;37.672;2022-10-17T10:05:37;13.73;;;6.40;;
61905;SDS011;47863;55.766;37.672;2022-10-17T10:08:04;11.30;;;4.75;;
61905;SDS011;47863;55.766;37.672;2022-10-17T10:10:37;10.73;;;5.63;;
61905;SDS011;47863;55.766;37.672;2022-10-17T10:15:45;12.10;;;6.60;;
61905;SDS011;47863;55.766;37.672;2022-10-17T10:21:08;8.73;;;4.65;;
61905;SDS011;47863;55.766;37.672;2022-10-17T10:23:41;16.48;;;6.63;;
61905;SDS011;47863;55.766;37.672;2022-10-17T10:26:17;8.48;;;4.55;;
61905;SDS011;47863;55.766;37.672;2022-10-17T10:28:50;16.65;;;6.80;;
61905;SDS011;47863;55.766;37.672;2022-10-17T10:31:24;12.63;;;6.28;;
61905;SDS011;47863;55.766;37.672;2022-10-17T10:34:02;12.20;;;5.85;;
61905;SDS011;47863;55.766;37.672;2022-10-17T10:36:43;12.35;;;6.45;;
61905;SDS011;47863;55.766;37.672;2022-10-17T10:39:17;14.77;;;6.90;;
61905;SDS011;47863;55.766;37.672;2022-10-17T10:41:59;11.30;;;6.80;;
61905;SDS011;47863;55.766;37.672;2022-10-17T10:44:27;13.00;;;6.07;;
61905;SDS011;47863;55.766;37.672;2022-10-17T10:49:39;11.55;;;6.32;;
61905;SDS011;47863;55.766;37.672;2022-10-17T10:52:06;12.25;;;5.82;;
61905;SDS011;47863;55.766;37.672;2022-10-17T10:54:41;11.13;;;5.63;;
61905;SDS011;47863;55.766;37.672;2022-10-17T10:57:15;11.65;;;7.00;;
61905;SDS011;47863;55.766;37.672;2022-10-17T10:59:59;16.80;;;4.15;;
61905;SDS011;47863;55.766;37.672;2022-10-17T11:08:01;12.57;;;5.75;;
61905;SDS011;47863;55.766;37.672;2022-10-17T11:10:36;10.48;;;6.05;;
61905;SDS011;47863;55.766;37.672;2022-10-17T11:21:15;14.98;;;6.07;;
61905;SDS011;47863;55.766;37.672;2022-10-17T11:23:47;7.85;;;4.85;;
61905;SDS011;47863;55.766;37.672;2022-10-17T11:26:34;14.00;;;5.97;;
61905;SDS011;47863;55.766;37.672;2022-10-17T11:29:09;8.73;;;5.28;;
61905;SDS011;47863;55.766;37.672;2022-10-17T11:31:47;11.32;;;5.38;;
61905;SDS011;47863;55.766;37.672;2022-10-17T11:34:22;26.35;;;8.07;;
61905;SDS011;47863;55.766;37.672;2022-10-17T11:36:51;13.32;;;6.22;;
61905;SDS011;47863;55.766;37.672;2022-10-17T11:42:00;14.48;;;6.68;;
61905;SDS011;47863;55.766;37.672;2022-10-17T11:44:34;10.80;;;5.38;;
61905;SDS011;47863;55.766;37.672;2022-10-17T11:47:44;14.90;;;7.35;;
61905;SDS011;47863;55.766;37.672;2022-10-17T11:49:56;8.25;;;4.38;;
61905;SDS011;47863;55.766;37.672;2022-10-17T11:52:45;10.73;;;5.60;;
61905;SDS011;47863;55.766;37.672;2022-10-17T11:55:19;13.32;;;6.60;;
61905;SDS011;47863;55.766;37.672;2022-10-17T12:20:15;11.85;;;5.72;;
61905;SDS011;47863;55.766;37.672;2022-10-17T12:22:58;16.33;;;7.93;;
61905;SDS011;47863;55.766;37.672;2022-10-17T12:25:46;11.82;;;5.95;;
61905;SDS011;47863;55.766;37.672;2022-10-17T12:30:53;13.57;;;5.28;;
61905;SDS011;47863;55.766;37.672;2022-10-17T12:38:45;16.05;;;8.38;;
61905;SDS011;47863;55.766;37.672;2022-10-17T12:41:12;12.80;;;7.95;;
61905;SDS011;47863;55.766;37.672;2022-10-17T12:43:45;17.25;;;8.43;;
61905;SDS011;47863;55.766;37.672;2022-10-17T12:54:31;11.30;;;7.13;;
61905;SDS011;47863;55.766;37.672;2022-10-17T12:57:12;31.58;;;14.07;;
61905;SDS011;47863;55.766;37.672;2022-10-17T12:59:44;16.45;;;7.03;;
61905;SDS011;47863;55.766;37.672;2022-10-17T13:02:14;14.40;;;7.25;;
61905;SDS011;47863;55.766;37.672;2022-10-17T13:04:44;11.43;;;7.25;;
61905;SDS011;47863;55.766;37.672;2022-10-17T13:07:15;17.50;;;8.93;;
61905;SDS011;47863;55.766;37.672;2022-10-17T13:09:45;14.68;;;7.53;;
61905;SDS011;47863;55.766;37.672;2022-10-17T13:12:13;15.82;;;8.18;;
61905;SDS011;47863;55.766;37.672;2022-10-17T13:14:42;16.00;;;8.77;;
61905;SDS011;47863;55.766;37.672;2022-10-17T13:17:24;15.90;;;7.18;;
61905;SDS011;47863;55.766;37.672;2022-10-17T13:19:52;20.73;;;10.48;;
61905;SDS011;47863;55.766;37.672;2022-10-17T13:24:46;17.30;;;8.23;;
61905;SDS011;47863;55.766;37.672;2022-10-17T13:27:31;18.05;;;8.57;;
61905;SDS011;47863;55.766;37.672;2022-10-17T13:30:00;18.45;;;9.32;;
61905;SDS011;47863;55.766;37.672;2022-10-17T13:32:45;17.90;;;9.07;;
61905;SDS011;47863;55.766;37.672;2022-10-17T13:35:11;14.38;;;7.43;;
61905;SDS011;47863;55.766;37.672;2022-10-17T13:37:40;15.95;;;8.38;;
61905;SDS011;47863;55.766;37.672;2022-10-17T13:40:18;17.70;;;8.38;;
61905;SDS011;47863;55.766;37.672;2022-10-17T13:42:45;14.55;;;8.07;;
61905;SDS011;47863;55.766;37.672;2022-10-17T13:45:23;14.40;;;6.15;;
61905;SDS011;47863;55.766;37.672;2022-10-17T13:47:54;10.93;;;6.20;;
61905;SDS011;47863;55.766;37.672;2022-10-17T13:50:26;16.02;;;7.07;;
61905;SDS011;47863;55.766;37.672;2022-10-17T13:53:07;16.50;;;8.25;;
61905;SDS011;47863;55.766;37.672;2022-10-17T13:58:22;12.75;;;7.18;;
61905;SDS011;47863;55.766;37.672;2022-10-17T14:00:48;15.70;;;8.88;;
61905;SDS011;47863;55.766;37.672;2022-10-17T14:03:18;11.73;;;6.03;;
61905;SDS011;47863;55.766;37.672;2022-10-17T14:08:29;16.55;;;8.50;;
61905;SDS011;47863;55.766;37.672;2022-10-17T14:10:56;14.70;;;8.00;;
61905;SDS011;47863;55.766;37.672;2022-10-17T14:13:23;18.13;;;8.20;;
61905;SDS011;47863;55.766;37.672;2022-10-17T14:15:52;12.48;;;6.28;;
61905;SDS011;47863;55.766;37.672;2022-10-17T14:18:29;11.52;;;6.38;;
61905;SDS011;47863;55.766;37.672;2022-10-17T14:20:56;17.33;;;8.77;;
61905;SDS011;47863;55.766;37.672;2022-10-17T14:26:02;20.90;;;8.63;;
61905;SDS011;47863;55.766;37.672;2022-10-17T14:28:30;17.15;;;7.57;;
61905;SDS011;47863;55.766;37.672;2022-10-17T14:31:07;19.25;;;8.27;;
61905;SDS011;47863;55.766;37.672;2022-10-17T14:33:33;18.08;;;8.23;;
61905;SDS011;47863;55.766;37.672;2022-10-17T14:36:00;17.63;;;7.95;;
61905;SDS011;47863;55.766;37.672;2022-10-17T14:38:27;16.63;;;8.73;;
61905;SDS011;47863;55.766;37.672;2022-10-17T14:43:25;16.67;;;7.38;;
61905;SDS011;47863;55.766;37.672;2022-10-17T14:45:56;19.98;;;8.20;;
61905;SDS011;47863;55.766;37.672;2022-10-17T14:48:23;17.13;;;8.32;;
61905;SDS011;47863;55.766;37.672;2022-10-17T14:51:06;11.68;;;6.30;;
61905;SDS011;47863;55.766;37.672;2022-10-17T14:53:34;31.65;;;12.52;;
61905;SDS011;47863;55.766;37.672;2022-10-17T14:56:01;9.95;;;5.50;;
61905;SDS011;47863;55.766;37.672;2022-10-17T14:58:45;16.30;;;8.32;;
61905;SDS011;47863;55.766;37.672;2022-10-17T15:01:10;16.23;;;8.40;;
61905;SDS011;47863;55.766;37.672;2022-10-17T15:03:36;24.80;;;6.32;;
61905;SDS011;47863;55.766;37.672;2022-10-17T15:06:08;17.05;;;8.38;;
61905;SDS011;47863;55.766;37.672;2022-10-17T15:08:42;20.60;;;8.75;;
61905;SDS011;47863;55.766;37.672;2022-10-17T15:11:08;14.50;;;8.23;;
61905;SDS011;47863;55.766;37.672;2022-10-17T15:13:35;16.05;;;7.63;;
61905;SDS011;47863;55.766;37.672;2022-10-17T15:16:01;11.15;;;5.80;;
61905;SDS011;47863;55.766;37.672;2022-10-17T15:18:27;11.13;;;7.53;;
61905;SDS011;47863;55.766;37.672;2022-10-17T15:20:52;16.77;;;8.43;;
61905;SDS011;47863;55.766;37.672;2022-10-17T15:23:18;13.80;;;8.38;;
61905;SDS011;47863;55.766;37.672;2022-10-17T15:25:44;17.77;;;8.32;;
61905;SDS011;47863;55.766;37.672;2022-10-17T15:28:10;13.77;;;6.22;;
61905;SDS011;47863;55.766;37.672;2022-10-17T15:30:37;15.43;;;8.50;;
61905;SDS011;47863;55.766;37.672;2022-10-17T15:33:03;19.20;;;9.35;;
61905;SDS011;47863;55.766;37.672;2022-10-17T15:35:29;16.33;;;8.52;;
61905;SDS011;47863;55.766;37.672;2022-10-17T15:37:55;16.42;;;8.07;;
61905;SDS011;47863;55.766;37.672;2022-10-17T15:40:25;15.57;;;8.15;;
61905;SDS011;47863;55.766;37.672;2022-10-17T15:42:54;20.20;;;9.00;;
61905;SDS011;47863;55.766;37.672;2022-10-17T15:45:20;17.27;;;9.00;;
61905;SDS011;47863;55.766;37.672;2022-10-17T15:47:56;18.05;;;8.82;;
61905;SDS011;47863;55.766;37.672;2022-10-17T15:50:27;17.70;;;8.68;;
61905;SDS011;47863;55.766;37.672;2022-10-17T15:52:54;15.60;;;7.40;;
61905;SDS011;47863;55.766;37.672;2022-10-17T15:55:20;17.55;;;8.75;;
61905;SDS011;47863;55.766;37.672;2022-10-17T15:57:46;18.52;;;8.85;;
61905;SDS011;47863;55.766;37.672;2022-10-17T16:00:20;16.83;;;8.20;;
61905;SDS011;47863;55.766;37.672;2022-10-17T16:02:48;13.13;;;7.40;;
61905;SDS011;47863;55.766;37.672;2022-10-17T16:05:21;15.70;;;7.80;;
61905;SDS011;47863;55.766;37.672;2022-10-17T16:07:49;15.80;;;8.30;;
61905;SDS011;47863;55.766;37.672;2022-10-17T16:10:16;11.73;;;6.20;;
61905;SDS011;47863;55.766;37.672;2022-10-17T16:12:42;16.63;;;8.82;;
61905;SDS011;47863;55.766;37.672;2022-10-17T16:15:13;13.93;;;8.05;;
61905;SDS011;47863;55.766;37.672;2022-10-17T16:17:40;11.95;;;6.65;;
61905;SDS011;47863;55.766;37.672;2022-10-17T16:20:07;18.48;;;6.32;;
61905;SDS011;47863;55.766;37.672;2022-10-17T16:22:34;19.15;;;8.75;;
61905;SDS011;47863;55.766;37.672;2022-10-17T16:25:01;13.77;;;6.97;;
61905;SDS011;47863;55.766;37.672;2022-10-17T16:27:34;18.63;;;8.52;;
61905;SDS011;47863;55.766;37.672;2022-10-17T16:30:01;17.75;;;8.57;;
61905;SDS011;47863;55.766;37.672;2022-10-17T16:32:31;18.55;;;8.82;;
61905;SDS011;47863;55.766;37.672;2022-10-17T16:34:57;15.80;;;8.75;;
61905;SDS011;47863;55.766;37.672;2022-10-17T16:37:24;19.55;;;9.27;;
61905;SDS011;47863;55.766;37.672;2022-10-17T16:39:50;17.90;;;8.38;;
61905;SDS011;47863;55.766;37.672;2022-10-17T16:42:18;13.52;;;7.25;;
61905;SDS011;47863;55.766;37.672;2022-10-17T16:44:44;14.95;;;8.02;;
61905;SDS011;47863;55.766;37.672;2022-10-17T16:47:10;15.55;;;9.55;;
61905;SDS011;47863;55.766;37.672;2022-10-17T16:49:36;14.75;;;7.40;;
61905;SDS011;47863;55.766;37.672;2022-10-17T16:52:02;14.88;;;7.95;;
61905;SDS011;47863;55.766;37.672;2022-10-17T16:54:28;18.00;;;8.57;;
61905;SDS011;47863;55.766;37.672;2022-10-17T16:56:54;15.82;;;7.20;;
61905;SDS011;47863;55.766;37.672;2022-10-17T16:59:22;13.85;;;7.32;;